Time;durP1;ratioP1;P1;durP2;ratioP2;P2;SDS_P1;SDS_P2;PMS_P1;PMS_P2;Temp;Humidity;BMP_temperature;BMP_pressure;BME280_temperature;BME280_humidity;BME280_pressure;Samples;Min_cycle;Max_cycle;Signal;HPM_P1;HPM_P2
2022/07/31 00:00:24;;;;;;;11.48;7.10;;;;;;;;;;5286271;28;20054;-81
2022/07/31 00:02:56;;;;;;;10.13;7.70;;;;;;;;;;5305650;28;20021;-80
2022/07/31 00:05:27;;;;;;;11.05;6.03;;;;;;;;;;5294846;28;20030;-80
2022/07/31 00:07:58;;;;;;;11.23;7.60;;;;;;;;;;5294262;28;20029;-81
2022/07/31 00:10:30;;;;;;;10.35;7.30;;;;;;;;;;5289228;28;20696;-81
2022/07/31 00:13:01;;;;;;;8.30;7.22;;;;;;;;;;5283505;28;20041;-81
2022/07/31 00:15:32;;;;;;;8.47;6.70;;;;;;;;;;5287541;28;20129;-81
2022/07/31 00:18:03;;;;;;;11.57;7.70;;;;;;;;;;5270487;28;20037;-81
2022/07/31 00:20:34;;;;;;;9.50;7.03;;;;;;;;;;5270440;28;21740;-81
2022/07/31 00:23:06;;;;;;;11.90;7.63;;;;;;;;;;5288549;28;20496;-81
2022/07/31 00:25:37;;;;;;;9.60;6.40;;;;;;;;;;5289297;28;20041;-81
2022/07/31 00:28:08;;;;;;;7.93;7.05;;;;;;;;;;5289021;28;20072;-81
2022/07/31 00:30:39;;;;;;;14.23;8.55;;;;;;;;;;5283798;28;20032;-81
2022/07/31 00:33:10;;;;;;;10.80;6.90;;;;;;;;;;5289951;28;20462;-81
2022/07/31 00:35:42;;;;;;;11.63;7.70;;;;;;;;;;5292950;28;20283;-81
2022/07/31 00:38:13;;;;;;;14.20;8.60;;;;;;;;;;5266124;28;20032;-81
2022/07/31 00:40:46;;;;;;;8.57;6.20;;;;;;;;;;5278784;28;20109;-81
2022/07/31 00:43:17;;;;;;;9.45;6.90;;;;;;;;;;5294016;28;20120;-81
2022/07/31 00:45:51;;;;;;;9.52;6.90;;;;;;;;;;5284942;28;20033;-81
2022/07/31 00:48:22;;;;;;;9.98;7.05;;;;;;;;;;5278066;28;20028;-81
2022/07/31 00:50:54;;;;;;;12.00;7.97;;;;;;;;;;5285666;28;20082;-81
2022/07/31 00:53:25;;;;;;;11.93;6.55;;;;;;;;;;5283797;28;20036;-81
2022/07/31 00:55:56;;;;;;;11.27;7.70;;;;;;;;;;5287167;28;20078;-81
2022/07/31 00:58:28;;;;;;;7.88;7.07;;;;;;;;;;5272984;28;20501;-81
2022/07/31 01:00:59;;;;;;;10.98;7.80;;;;;;;;;;5272867;28;20541;-81
2022/07/31 01:03:30;;;;;;;8.73;7.90;;;;;;;;;;5289829;28;20021;-81
2022/07/31 01:06:02;;;;;;;11.40;7.80;;;;;;;;;;5284597;28;20027;-81
2022/07/31 01:08:33;;;;;;;10.68;7.82;;;;;;;;;;5284888;28;20027;-81
2022/07/31 01:11:24;;;;;;;11.68;8.15;;;;;;;;;;5271865;28;20033;-81
2022/07/31 01:13:59;;;;;;;9.13;8.23;;;;;;;;;;5278636;28;20061;-81
2022/07/31 01:16:34;;;;;;;11.63;6.63;;;;;;;;;;5289835;28;20461;-81
2022/07/31 01:19:25;;;;;;;10.25;8.23;;;;;;;;;;5282035;28;20036;-80
2022/07/31 01:22:07;;;;;;;6.55;5.85;;;;;;;;;;5284657;28;20056;-81
2022/07/31 01:24:38;;;;;;;10.15;8.23;;;;;;;;;;5287376;28;20029;-81
2022/07/31 01:27:16;;;;;;;11.65;8.55;;;;;;;;;;5278994;28;20574;-80
2022/07/31 01:29:52;;;;;;;11.70;6.57;;;;;;;;;;5292402;28;20032;-81
2022/07/31 01:32:43;;;;;;;13.10;7.25;;;;;;;;;;5270321;28;20489;-81
2022/07/31 01:35:20;;;;;;;10.05;7.82;;;;;;;;;;5288270;28;20117;-81
2022/07/31 01:37:54;;;;;;;12.13;9.43;;;;;;;;;;5291219;28;20110;-81
2022/07/31 01:40:34;;;;;;;12.43;9.60;;;;;;;;;;5267750;28;20043;-81
2022/07/31 01:43:11;;;;;;;11.65;8.93;;;;;;;;;;5265143;28;20033;-80
2022/07/31 01:45:44;;;;;;;9.80;7.70;;;;;;;;;;5283337;28;20535;-81
2022/07/31 01:48:16;;;;;;;10.20;7.78;;;;;;;;;;5284180;28;20020;-81
2022/07/31 01:50:48;;;;;;;9.00;7.60;;;;;;;;;;5287974;28;20032;-81
2022/07/31 01:53:20;;;;;;;13.88;8.82;;;;;;;;;;5282086;28;20164;-81
2022/07/31 01:55:53;;;;;;;11.43;8.68;;;;;;;;;;5279702;28;20021;-81
2022/07/31 01:58:25;;;;;;;10.75;7.63;;;;;;;;;;5271715;28;20127;-81
2022/07/31 02:00:57;;;;;;;10.35;8.40;;;;;;;;;;5293258;28;20089;-81
2022/07/31 02:03:29;;;;;;;11.85;9.52;;;;;;;;;;5280092;28;20029;-81
2022/07/31 02:06:00;;;;;;;9.50;7.85;;;;;;;;;;5265469;28;20072;-81
2022/07/31 02:08:32;;;;;;;18.23;9.10;;;;;;;;;;5286592;28;20604;-81
2022/07/31 02:11:04;;;;;;;12.88;8.70;;;;;;;;;;5288628;28;20033;-81
2022/07/31 02:13:36;;;;;;;14.38;8.70;;;;;;;;;;5279064;28;20485;-81
2022/07/31 02:16:07;;;;;;;10.02;7.65;;;;;;;;;;5263104;28;20039;-81
2022/07/31 02:18:39;;;;;;;12.73;7.80;;;;;;;;;;5289983;28;20035;-81
2022/07/31 02:21:10;;;;;;;17.40;8.20;;;;;;;;;;5289015;28;20075;-82
2022/07/31 02:23:41;;;;;;;14.03;6.87;;;;;;;;;;5286571;28;20064;-82
2022/07/31 02:26:14;;;;;;;12.15;7.13;;;;;;;;;;5274962;28;20727;-81
2022/07/31 02:28:46;;;;;;;12.90;7.97;;;;;;;;;;5283616;28;20531;-82
2022/07/31 02:31:18;;;;;;;11.20;8.45;;;;;;;;;;5283598;28;20063;-82
2022/07/31 02:33:50;;;;;;;9.15;7.50;;;;;;;;;;5291664;28;20033;-82
2022/07/31 02:36:22;;;;;;;11.07;7.95;;;;;;;;;;5283868;28;20017;-83
2022/07/31 02:38:54;;;;;;;10.50;7.78;;;;;;;;;;5308849;28;20037;-80
2022/07/31 02:41:26;;;;;;;10.23;8.32;;;;;;;;;;5296349;28;20127;-82
2022/07/31 02:43:57;;;;;;;9.70;6.80;;;;;;;;;;5279369;28;20040;-82
2022/07/31 02:46:29;;;;;;;14.98;9.77;;;;;;;;;;5298786;28;20025;-80
2022/07/31 02:49:01;;;;;;;11.95;9.15;;;;;;;;;;5291952;28;20094;-80
2022/07/31 02:51:32;;;;;;;9.77;8.07;;;;;;;;;;5297679;28;20108;-81
2022/07/31 02:54:03;;;;;;;13.60;10.13;;;;;;;;;;5281573;28;20035;-82
2022/07/31 02:56:35;;;;;;;11.77;10.50;;;;;;;;;;5291329;28;20037;-82
2022/07/31 02:59:06;;;;;;;10.55;9.45;;;;;;;;;;5287259;28;20357;-82
2022/07/31 03:01:37;;;;;;;11.17;9.00;;;;;;;;;;5268930;28;20034;-81
2022/07/31 03:04:09;;;;;;;10.80;9.60;;;;;;;;;;5281025;28;20387;-81
2022/07/31 03:06:40;;;;;;;13.93;10.20;;;;;;;;;;5270936;28;20324;-82
2022/07/31 03:09:11;;;;;;;15.27;10.45;;;;;;;;;;5253529;28;20044;-82
2022/07/31 03:11:42;;;;;;;11.45;10.25;;;;;;;;;;5280422;28;20033;-79
2022/07/31 03:14:14;;;;;;;12.80;9.70;;;;;;;;;;5288705;28;20205;-79
2022/07/31 03:16:46;;;;;;;14.80;9.88;;;;;;;;;;5276328;28;20067;-79
2022/07/31 03:19:18;;;;;;;10.98;9.57;;;;;;;;;;5292980;28;20108;-78
2022/07/31 03:21:49;;;;;;;18.38;10.80;;;;;;;;;;5294863;28;20025;-78
2022/07/31 03:24:21;;;;;;;13.10;10.02;;;;;;;;;;5275771;28;20028;-79
2022/07/31 03:26:52;;;;;;;13.30;10.40;;;;;;;;;;5289752;28;20077;-79
2022/07/31 03:29:23;;;;;;;13.70;11.15;;;;;;;;;;5290014;28;20488;-79
2022/07/31 03:31:55;;;;;;;13.75;11.00;;;;;;;;;;5289313;28;20616;-79
2022/07/31 03:34:26;;;;;;;15.60;11.95;;;;;;;;;;5280753;28;20084;-79
2022/07/31 03:36:57;;;;;;;12.73;10.95;;;;;;;;;;5288739;28;20030;-78
2022/07/31 03:39:29;;;;;;;14.55;12.15;;;;;;;;;;5280552;28;20029;-79
2022/07/31 03:42:00;;;;;;;17.08;11.32;;;;;;;;;;5269405;28;20069;-78
2022/07/31 03:44:32;;;;;;;17.27;11.20;;;;;;;;;;5273887;28;20025;-78
2022/07/31 03:47:03;;;;;;;16.23;11.82;;;;;;;;;;5282586;28;20025;-78
2022/07/31 03:49:35;;;;;;;14.23;11.13;;;;;;;;;;5269611;28;20050;-79
2022/07/31 03:52:06;;;;;;;16.20;12.60;;;;;;;;;;5285275;28;20039;-80
2022/07/31 03:54:37;;;;;;;15.38;12.75;;;;;;;;;;5285438;28;20036;-80
2022/07/31 03:57:09;;;;;;;15.55;12.15;;;;;;;;;;5281287;28;20037;-80
2022/07/31 03:59:43;;;;;;;16.20;12.10;;;;;;;;;;5290473;28;20033;-80
2022/07/31 04:02:15;;;;;;;15.18;11.73;;;;;;;;;;5295978;28;20431;-80
2022/07/31 04:04:46;;;;;;;17.88;13.07;;;;;;;;;;5286267;28;20028;-80
2022/07/31 04:07:17;;;;;;;14.33;12.93;;;;;;;;;;5270980;28;20075;-80
2022/07/31 04:09:48;;;;;;;14.32;12.85;;;;;;;;;;5288724;28;20680;-80
2022/07/31 04:12:19;;;;;;;15.33;12.30;;;;;;;;;;5292773;28;20036;-80
2022/07/31 04:14:51;;;;;;;13.43;12.03;;;;;;;;;;5291381;28;20271;-79
2022/07/31 04:17:22;;;;;;;13.13;11.85;;;;;;;;;;5270360;28;20056;-79
2022/07/31 04:19:53;;;;;;;13.50;11.40;;;;;;;;;;5287155;28;20024;-79
2022/07/31 04:22:24;;;;;;;15.83;11.57;;;;;;;;;;5274151;28;20085;-79
2022/07/31 04:24:55;;;;;;;13.35;10.75;;;;;;;;;;5276226;28;20025;-79
2022/07/31 04:27:27;;;;;;;12.43;11.10;;;;;;;;;;5286250;28;20063;-79
2022/07/31 04:29:58;;;;;;;13.03;11.20;;;;;;;;;;5264668;28;20021;-79
2022/07/31 04:32:29;;;;;;;11.87;10.63;;;;;;;;;;5290395;28;20319;-78
2022/07/31 04:35:01;;;;;;;13.70;10.20;;;;;;;;;;5284336;28;20264;-79
2022/07/31 04:37:33;;;;;;;15.02;10.38;;;;;;;;;;5280826;28;20341;-79
2022/07/31 04:40:04;;;;;;;16.97;10.50;;;;;;;;;;5283837;28;20025;-80
2022/07/31 04:42:35;;;;;;;12.70;9.88;;;;;;;;;;5292730;28;20607;-80
2022/07/31 04:45:07;;;;;;;10.43;9.32;;;;;;;;;;5262947;28;20135;-79
2022/07/31 04:47:38;;;;;;;11.90;9.63;;;;;;;;;;5282695;28;20483;-80
2022/07/31 04:50:09;;;;;;;12.93;9.47;;;;;;;;;;5283028;28;20104;-79
2022/07/31 04:52:41;;;;;;;14.02;8.65;;;;;;;;;;5263390;28;20345;-80
2022/07/31 04:55:12;;;;;;;11.50;7.63;;;;;;;;;;5280298;28;20490;-80
2022/07/31 04:57:43;;;;;;;10.10;7.50;;;;;;;;;;5284498;28;20033;-79
2022/07/31 05:00:14;;;;;;;10.27;8.37;;;;;;;;;;5285354;28;20028;-80
2022/07/31 05:02:46;;;;;;;12.27;8.43;;;;;;;;;;5284977;28;20036;-80
2022/07/31 05:05:17;;;;;;;12.73;8.07;;;;;;;;;;5295009;28;20377;-80
2022/07/31 05:07:48;;;;;;;13.07;8.07;;;;;;;;;;5284351;28;20275;-80
2022/07/31 05:13:09;;;;;;;8.75;7.20;;;;;;;;;;5264557;28;20041;-80
2022/07/31 05:15:40;;;;;;;9.65;7.18;;;;;;;;;;5291476;28;20036;-80
2022/07/31 05:18:11;;;;;;;9.95;7.38;;;;;;;;;;5285705;28;20027;-80
2022/07/31 05:20:42;;;;;;;7.65;6.90;;;;;;;;;;5285285;28;20095;-80
2022/07/31 05:23:14;;;;;;;7.83;6.40;;;;;;;;;;5281171;28;20024;-80
2022/07/31 05:25:46;;;;;;;7.85;6.03;;;;;;;;;;5265245;28;20072;-79
2022/07/31 05:28:17;;;;;;;7.50;6.35;;;;;;;;;;5286245;28;20037;-79
2022/07/31 05:30:48;;;;;;;8.10;5.90;;;;;;;;;;5270124;28;20037;-79
2022/07/31 05:33:19;;;;;;;7.65;5.40;;;;;;;;;;5281944;28;20736;-79
2022/07/31 05:35:50;;;;;;;8.38;5.53;;;;;;;;;;5289559;28;20082;-79
2022/07/31 05:38:22;;;;;;;6.63;5.45;;;;;;;;;;5281541;28;20064;-80
2022/07/31 05:40:53;;;;;;;6.63;5.07;;;;;;;;;;5271912;28;20021;-80
2022/07/31 05:43:24;;;;;;;7.43;5.53;;;;;;;;;;5284650;28;20057;-80
2022/07/31 05:45:56;;;;;;;6.93;4.93;;;;;;;;;;5281369;28;20017;-80
2022/07/31 05:48:27;;;;;;;6.78;5.00;;;;;;;;;;5279527;28;20314;-80
2022/07/31 05:50:58;;;;;;;6.28;5.30;;;;;;;;;;5280919;28;20032;-80
2022/07/31 05:53:30;;;;;;;8.43;5.10;;;;;;;;;;5266894;28;20124;-80
2022/07/31 05:56:01;;;;;;;7.57;4.72;;;;;;;;;;5271567;28;20025;-80
2022/07/31 05:58:33;;;;;;;6.70;4.82;;;;;;;;;;5274476;28;20029;-80
2022/07/31 06:01:04;;;;;;;6.50;4.63;;;;;;;;;;5270286;28;20556;-77
2022/07/31 06:03:35;;;;;;;4.68;4.28;;;;;;;;;;5274439;28;20033;-80
2022/07/31 06:06:07;;;;;;;5.38;4.70;;;;;;;;;;5277309;28;20021;-78
2022/07/31 06:08:38;;;;;;;7.43;4.73;;;;;;;;;;5270939;28;20028;-78
2022/07/31 06:11:09;;;;;;;6.87;4.20;;;;;;;;;;5264684;28;20075;-77
2022/07/31 06:13:42;;;;;;;7.20;4.47;;;;;;;;;;5286733;28;20274;-77
2022/07/31 06:16:14;;;;;;;6.13;4.63;;;;;;;;;;5290616;28;20073;-77
2022/07/31 06:18:45;;;;;;;5.13;4.45;;;;;;;;;;5286181;28;20036;-78
2022/07/31 06:21:16;;;;;;;4.82;4.20;;;;;;;;;;5282508;28;20017;-78
2022/07/31 06:23:50;;;;;;;6.05;4.30;;;;;;;;;;5291026;28;20067;-78
2022/07/31 06:26:21;;;;;;;7.10;4.97;;;;;;;;;;5264194;28;20048;-78
2022/07/31 06:28:53;;;;;;;5.37;4.23;;;;;;;;;;5272277;28;20037;-78
2022/07/31 06:31:24;;;;;;;5.45;4.75;;;;;;;;;;5287046;28;20024;-78
2022/07/31 06:33:55;;;;;;;6.47;4.43;;;;;;;;;;5269334;28;20074;-78
2022/07/31 06:36:26;;;;;;;5.13;4.27;;;;;;;;;;5288578;28;20028;-78
2022/07/31 06:38:57;;;;;;;10.40;5.30;;;;;;;;;;5289500;28;20317;-78
2022/07/31 06:41:43;;;;;;;6.18;4.55;;;;;;;;;;5291993;28;20346;-79
2022/07/31 06:44:15;;;;;;;7.82;4.35;;;;;;;;;;5289737;28;20095;-79
2022/07/31 06:46:47;;;;;;;6.95;4.43;;;;;;;;;;5280486;28;20040;-79
2022/07/31 06:49:19;;;;;;;5.95;4.80;;;;;;;;;;5287730;28;20025;-79
2022/07/31 06:51:50;;;;;;;7.53;4.80;;;;;;;;;;5259616;28;20071;-79
2022/07/31 06:54:21;;;;;;;7.80;5.20;;;;;;;;;;5287725;28;20021;-79
2022/07/31 06:56:52;;;;;;;8.33;5.73;;;;;;;;;;5288348;28;20291;-79
2022/07/31 06:59:23;;;;;;;7.47;4.80;;;;;;;;;;5284945;28;20061;-78
2022/07/31 07:01:54;;;;;;;10.03;5.80;;;;;;;;;;5278896;28;20466;-79
2022/07/31 07:04:26;;;;;;;6.93;5.10;;;;;;;;;;5292839;28;20035;-79
2022/07/31 07:06:57;;;;;;;6.68;4.80;;;;;;;;;;5284672;28;20280;-79
2022/07/31 07:09:28;;;;;;;7.33;5.77;;;;;;;;;;5285084;28;32183;-79
2022/07/31 07:11:59;;;;;;;7.35;6.07;;;;;;;;;;5270088;28;20672;-78
2022/07/31 07:14:31;;;;;;;12.00;6.27;;;;;;;;;;5292787;28;20029;-79
2022/07/31 07:17:03;;;;;;;9.07;6.23;;;;;;;;;;5291228;28;20032;-78
2022/07/31 07:19:37;;;;;;;9.85;7.15;;;;;;;;;;5280512;28;20038;-79
2022/07/31 07:22:09;;;;;;;11.55;7.07;;;;;;;;;;5280368;28;20485;-78
2022/07/31 07:24:40;;;;;;;7.70;6.53;;;;;;;;;;5283162;28;20436;-78
2022/07/31 07:27:11;;;;;;;10.47;7.57;;;;;;;;;;5284339;28;20124;-79
2022/07/31 07:29:42;;;;;;;11.67;7.90;;;;;;;;;;5279044;28;20287;-79
2022/07/31 07:32:15;;;;;;;14.82;8.98;;;;;;;;;;5280565;28;20295;-79
2022/07/31 07:34:46;;;;;;;9.77;7.85;;;;;;;;;;5265849;28;20056;-79
2022/07/31 07:37:17;;;;;;;8.55;7.40;;;;;;;;;;5290267;28;20118;-79
2022/07/31 07:39:48;;;;;;;11.60;7.90;;;;;;;;;;5288272;28;20033;-79
2022/07/31 07:42:19;;;;;;;11.10;7.93;;;;;;;;;;5282514;28;20535;-79
2022/07/31 07:44:51;;;;;;;9.82;7.90;;;;;;;;;;5289865;28;20263;-79
2022/07/31 07:47:22;;;;;;;10.17;8.30;;;;;;;;;;5266294;28;20029;-79
2022/07/31 07:49:53;;;;;;;8.57;7.73;;;;;;;;;;5297506;28;20032;-78
2022/07/31 07:52:24;;;;;;;13.13;8.07;;;;;;;;;;5293512;28;20182;-78
2022/07/31 07:54:55;;;;;;;15.38;9.20;;;;;;;;;;5278855;28;20393;-78
2022/07/31 07:57:27;;;;;;;10.07;7.93;;;;;;;;;;5279097;28;20510;-78
2022/07/31 07:59:59;;;;;;;9.75;8.75;;;;;;;;;;5290208;28;20380;-78
2022/07/31 08:02:30;;;;;;;12.57;9.32;;;;;;;;;;5277061;28;20100;-78
2022/07/31 08:05:01;;;;;;;9.97;8.67;;;;;;;;;;5270649;28;20111;-79
2022/07/31 08:07:34;;;;;;;12.05;7.95;;;;;;;;;;5271383;28;20362;-79
2022/07/31 08:10:07;;;;;;;9.60;8.50;;;;;;;;;;5276681;28;20032;-79
2022/07/31 08:12:39;;;;;;;13.30;9.23;;;;;;;;;;5284114;28;20459;-78
2022/07/31 08:15:11;;;;;;;10.00;8.45;;;;;;;;;;5284474;28;20074;-78
2022/07/31 08:17:42;;;;;;;11.48;9.05;;;;;;;;;;5286472;28;20119;-79
2022/07/31 08:20:13;;;;;;;10.33;8.93;;;;;;;;;;5265426;28;20029;-78
2022/07/31 08:22:44;;;;;;;12.93;7.90;;;;;;;;;;5268265;28;20028;-78
2022/07/31 08:25:15;;;;;;;9.60;8.33;;;;;;;;;;5266472;28;20045;-79
2022/07/31 08:27:47;;;;;;;9.27;8.23;;;;;;;;;;5281648;28;20029;-78
2022/07/31 08:30:19;;;;;;;9.15;8.23;;;;;;;;;;5280418;28;20021;-79
2022/07/31 08:32:50;;;;;;;9.10;8.10;;;;;;;;;;5277789;28;20090;-79
2022/07/31 08:35:22;;;;;;;9.65;8.00;;;;;;;;;;5293663;28;20024;-78
2022/07/31 08:37:55;;;;;;;9.43;8.07;;;;;;;;;;5290544;28;20024;-79
2022/07/31 08:40:27;;;;;;;10.70;8.10;;;;;;;;;;5291300;28;20028;-79
2022/07/31 08:42:58;;;;;;;12.63;8.27;;;;;;;;;;5288418;28;20062;-79
2022/07/31 08:45:30;;;;;;;12.20;8.33;;;;;;;;;;5279803;28;20470;-79
2022/07/31 08:48:03;;;;;;;10.45;8.27;;;;;;;;;;5289042;28;20263;-79
2022/07/31 08:50:37;;;;;;;8.93;8.02;;;;;;;;;;5279120;28;20587;-79
2022/07/31 08:53:13;;;;;;;9.10;7.57;;;;;;;;;;5252323;28;20045;-79
2022/07/31 08:55:45;;;;;;;8.85;7.07;;;;;;;;;;5277220;28;20454;-79
2022/07/31 08:58:17;;;;;;;8.97;7.87;;;;;;;;;;5259212;28;20165;-79
2022/07/31 09:00:48;;;;;;;11.15;7.28;;;;;;;;;;5276679;28;20388;-78
2022/07/31 09:03:20;;;;;;;8.55;7.75;;;;;;;;;;5271388;28;20025;-79
2022/07/31 09:05:51;;;;;;;7.88;7.07;;;;;;;;;;5271838;28;20068;-78
2022/07/31 09:08:22;;;;;;;7.30;6.60;;;;;;;;;;5274719;28;20036;-79
2022/07/31 09:11:00;;;;;;;7.68;6.72;;;;;;;;;;5273351;28;20024;-78
2022/07/31 09:13:33;;;;;;;8.23;7.00;;;;;;;;;;5272989;28;20416;-78
2022/07/31 09:16:05;;;;;;;11.15;6.78;;;;;;;;;;5273087;28;20075;-79
2022/07/31 09:18:36;;;;;;;7.22;6.45;;;;;;;;;;5270173;28;20028;-78
2022/07/31 09:21:08;;;;;;;8.73;6.17;;;;;;;;;;5254193;28;20378;-79
2022/07/31 09:23:44;;;;;;;9.05;6.40;;;;;;;;;;5274124;28;20271;-78
2022/07/31 09:26:15;;;;;;;9.00;6.00;;;;;;;;;;5262464;28;20156;-79
2022/07/31 09:28:51;;;;;;;9.02;6.45;;;;;;;;;;5273404;28;20035;-79
2022/07/31 09:31:30;;;;;;;12.02;6.70;;;;;;;;;;5275912;28;20049;-79
2022/07/31 09:34:01;;;;;;;9.98;6.82;;;;;;;;;;5275606;28;20087;-79
2022/07/31 09:36:32;;;;;;;7.83;6.93;;;;;;;;;;5258109;28;20033;-79
2022/07/31 09:39:11;;;;;;;8.88;5.70;;;;;;;;;;5275881;28;20296;-79
2022/07/31 09:41:49;;;;;;;8.38;6.00;;;;;;;;;;5259635;28;20147;-79
2022/07/31 09:44:20;;;;;;;6.88;5.82;;;;;;;;;;5262677;28;20025;-78
2022/07/31 09:46:51;;;;;;;8.97;6.00;;;;;;;;;;5273342;28;20028;-79
2022/07/31 09:49:29;;;;;;;7.10;5.23;;;;;;;;;;5255748;28;20365;-79
2022/07/31 09:52:00;;;;;;;10.93;5.20;;;;;;;;;;5275128;28;20108;-79
2022/07/31 09:54:32;;;;;;;6.30;4.55;;;;;;;;;;5259917;28;20051;-79
2022/07/31 09:57:13;;;;;;;9.43;4.47;;;;;;;;;;5273692;28;20029;-79
2022/07/31 09:59:44;;;;;;;4.82;4.00;;;;;;;;;;5285280;28;20021;-79
2022/07/31 10:02:16;;;;;;;5.33;4.10;;;;;;;;;;5282262;28;20483;-79
2022/07/31 10:04:49;;;;;;;6.55;4.32;;;;;;;;;;5262658;28;20720;-79
2022/07/31 10:07:24;;;;;;;8.50;3.63;;;;;;;;;;5284269;28;20491;-79
2022/07/31 10:09:56;;;;;;;7.28;3.75;;;;;;;;;;5263360;28;20036;-79
2022/07/31 10:12:28;;;;;;;6.72;3.60;;;;;;;;;;5281087;28;20040;-79
2022/07/31 10:15:04;;;;;;;6.03;3.67;;;;;;;;;;5283116;28;20674;-79
2022/07/31 10:17:38;;;;;;;6.45;3.85;;;;;;;;;;5261729;28;20048;-78
2022/07/31 10:20:12;;;;;;;5.68;4.00;;;;;;;;;;5285765;28;20044;-78
2022/07/31 10:22:48;;;;;;;5.13;3.60;;;;;;;;;;5281863;28;20033;-78
2022/07/31 10:25:28;;;;;;;7.38;4.00;;;;;;;;;;5283747;28;20076;-78
2022/07/31 10:28:00;;;;;;;7.15;3.55;;;;;;;;;;5272773;28;20116;-78
2022/07/31 10:30:34;;;;;;;7.05;3.67;;;;;;;;;;5284329;28;21235;-78
2022/07/31 10:33:06;;;;;;;5.95;3.15;;;;;;;;;;5273373;28;20033;-78
2022/07/31 10:35:39;;;;;;;5.28;3.15;;;;;;;;;;5279244;28;20140;-78
2022/07/31 10:38:14;;;;;;;5.50;2.90;;;;;;;;;;5281449;28;20028;-78
2022/07/31 10:40:48;;;;;;;8.82;3.55;;;;;;;;;;5251613;28;20125;-78
2022/07/31 10:43:38;;;;;;;9.85;3.05;;;;;;;;;;5279436;28;20060;-78
2022/07/31 10:46:09;;;;;;;9.18;3.45;;;;;;;;;;5283454;28;20029;-79
2022/07/31 10:48:51;;;;;;;5.30;3.23;;;;;;;;;;5283703;28;20037;-78
2022/07/31 10:51:22;;;;;;;4.38;3.08;;;;;;;;;;5279673;28;20140;-79
2022/07/31 10:53:58;;;;;;;7.75;3.67;;;;;;;;;;5278097;28;20045;-80
2022/07/31 10:56:29;;;;;;;;;;;;;;;;;;5281380;28;20025;-80
2022/07/31 10:59:00;;;;;;;11.88;3.13;;;;;;;;;;5263681;28;20301;-80
2022/07/31 11:01:31;;;;;;;6.83;2.70;;;;;;;;;;5274422;28;20492;-79
2022/07/31 11:04:03;;;;;;;9.63;3.17;;;;;;;;;;5285320;28;20244;-80
2022/07/31 11:06:39;;;;;;;5.78;2.80;;;;;;;;;;5290506;28;20231;-80
2022/07/31 11:09:20;;;;;;;3.78;2.97;;;;;;;;;;5293616;28;20434;-79
2022/07/31 11:11:54;;;;;;;17.55;4.60;;;;;;;;;;5280275;28;20095;-79
2022/07/31 11:14:37;;;;;;;3.33;2.90;;;;;;;;;;5284573;28;20103;-79
2022/07/31 11:17:08;;;;;;;5.78;2.60;;;;;;;;;;5285920;28;20013;-79
2022/07/31 11:19:41;;;;;;;5.27;2.90;;;;;;;;;;5285532;28;20017;-80
2022/07/31 11:22:13;;;;;;;4.43;3.10;;;;;;;;;;5284847;28;20794;-80
2022/07/31 11:24:57;;;;;;;5.80;2.88;;;;;;;;;;5283603;28;20439;-80
2022/07/31 11:27:32;;;;;;;8.18;2.50;;;;;;;;;;5284014;28;20038;-80
2022/07/31 11:30:07;;;;;;;4.63;2.28;;;;;;;;;;5266272;28;20037;-80
2022/07/31 11:32:38;;;;;;;2.55;2.13;;;;;;;;;;5282966;28;20108;-80
2022/07/31 11:35:09;;;;;;;4.27;2.73;;;;;;;;;;5284528;28;20120;-80
2022/07/31 11:37:42;;;;;;;3.70;2.23;;;;;;;;;;5266823;28;20025;-80
2022/07/31 11:40:13;;;;;;;4.97;2.42;;;;;;;;;;5285195;28;20767;-79
2022/07/31 11:42:45;;;;;;;5.47;2.55;;;;;;;;;;5284349;28;20021;-80
2022/07/31 11:45:16;;;;;;;2.50;2.30;;;;;;;;;;5284769;28;20444;-80
2022/07/31 11:47:48;;;;;;;4.80;2.40;;;;;;;;;;5285429;28;20048;-80
2022/07/31 11:50:19;;;;;;;4.85;2.17;;;;;;;;;;5285087;28;20675;-80
2022/07/31 11:53:00;;;;;;;3.58;2.60;;;;;;;;;;5265399;28;20087;-80
2022/07/31 11:55:42;;;;;;;3.08;2.63;;;;;;;;;;5283719;28;20017;-80
2022/07/31 11:58:14;;;;;;;7.95;2.92;;;;;;;;;;5284581;28;20041;-80
2022/07/31 12:00:46;;;;;;;7.30;3.28;;;;;;;;;;5275476;28;20478;-79
2022/07/31 12:03:18;;;;;;;4.47;2.60;;;;;;;;;;5282455;28;20029;-80
2022/07/31 12:05:51;;;;;;;4.78;2.40;;;;;;;;;;5284089;28;20032;-80
2022/07/31 12:08:23;;;;;;;8.45;2.50;;;;;;;;;;5284241;28;20025;-80
2022/07/31 12:10:54;;;;;;;4.00;2.45;;;;;;;;;;5264583;28;20098;-80
2022/07/31 12:13:26;;;;;;;3.30;2.20;;;;;;;;;;5283801;28;20024;-80
2022/07/31 12:15:57;;;;;;;5.40;2.70;;;;;;;;;;5284618;28;20104;-80
2022/07/31 12:18:29;;;;;;;4.77;2.70;;;;;;;;;;5265897;28;20032;-79
2022/07/31 12:21:02;;;;;;;5.15;3.10;;;;;;;;;;5274556;28;20100;-80
2022/07/31 12:23:41;;;;;;;5.70;2.92;;;;;;;;;;5282965;28;20025;-80
2022/07/31 12:26:20;;;;;;;5.35;3.67;;;;;;;;;;5283181;28;20394;-81
2022/07/31 12:28:58;;;;;;;3.20;2.90;;;;;;;;;;5276706;28;20059;-81
2022/07/31 12:31:41;;;;;;;7.57;3.47;;;;;;;;;;5277218;28;20056;-81
2022/07/31 12:34:24;;;;;;;5.28;3.35;;;;;;;;;;5282999;28;20032;-80
2022/07/31 12:37:03;;;;;;;5.10;3.22;;;;;;;;;;5276923;28;20074;-81
2022/07/31 12:39:35;;;;;;;6.95;3.28;;;;;;;;;;5284107;28;20036;-81
2022/07/31 12:42:07;;;;;;;5.85;2.90;;;;;;;;;;5283726;28;20036;-81
2022/07/31 12:44:46;;;;;;;3.28;2.63;;;;;;;;;;5283243;28;20029;-81
2022/07/31 12:47:24;;;;;;;5.97;2.70;;;;;;;;;;5264986;28;20031;-81
2022/07/31 12:49:56;;;;;;;7.45;3.50;;;;;;;;;;5284038;28;20013;-81
2022/07/31 12:52:29;;;;;;;8.05;2.80;;;;;;;;;;5281918;28;20400;-80
2022/07/31 12:55:01;;;;;;;10.02;2.90;;;;;;;;;;5282666;28;20165;-81
2022/07/31 12:57:32;;;;;;;5.00;2.40;;;;;;;;;;5283687;28;20196;-81
2022/07/31 13:00:07;;;;;;;4.10;2.87;;;;;;;;;;5283912;28;20017;-81
2022/07/31 13:02:38;;;;;;;4.97;3.15;;;;;;;;;;5263048;28;20040;-81
2022/07/31 13:05:10;;;;;;;3.90;2.75;;;;;;;;;;5265168;28;20029;-81
2022/07/31 13:07:41;;;;;;;4.88;2.80;;;;;;;;;;5281676;28;20031;-81
2022/07/31 13:10:12;;;;;;;5.90;2.77;;;;;;;;;;5265160;28;20485;-81
2022/07/31 13:12:43;;;;;;;4.20;2.90;;;;;;;;;;5263835;28;20032;-81
2022/07/31 13:15:16;;;;;;;5.10;2.67;;;;;;;;;;5278020;28;20033;-81
2022/07/31 13:17:47;;;;;;;6.22;3.05;;;;;;;;;;5282241;28;20473;-81
2022/07/31 13:20:18;;;;;;;5.20;2.93;;;;;;;;;;5264933;28;20087;-81
2022/07/31 13:22:52;;;;;;;6.63;2.97;;;;;;;;;;5265022;28;20280;-81
2022/07/31 13:25:25;;;;;;;6.00;2.60;;;;;;;;;;5280154;28;20025;-81
2022/07/31 13:27:56;;;;;;;5.03;2.63;;;;;;;;;;5283634;28;20103;-81
2022/07/31 13:30:27;;;;;;;13.13;2.88;;;;;;;;;;5282523;28;20104;-81
2022/07/31 13:32:59;;;;;;;9.98;2.63;;;;;;;;;;5280157;28;20068;-81
2022/07/31 13:35:31;;;;;;;5.70;2.70;;;;;;;;;;5282074;28;20357;-81
2022/07/31 13:38:02;;;;;;;4.43;2.28;;;;;;;;;;5283029;28;20052;-81
2022/07/31 13:43:23;;;;;;;4.13;2.42;;;;;;;;;;5281715;28;20037;-81
2022/07/31 13:45:54;;;;;;;3.67;1.80;;;;;;;;;;5264115;28;20102;-81
2022/07/31 13:48:25;;;;;;;4.20;1.93;;;;;;;;;;5282915;28;20025;-81
2022/07/31 13:50:56;;;;;;;6.17;2.30;;;;;;;;;;5283245;28;20040;-81
2022/07/31 13:53:27;;;;;;;3.37;1.90;;;;;;;;;;5281511;28;20025;-81
2022/07/31 13:56:01;;;;;;;7.90;2.27;;;;;;;;;;5282241;28;20056;-80
2022/07/31 13:58:32;;;;;;;4.68;2.00;;;;;;;;;;5279715;28;20307;-80
2022/07/31 14:01:04;;;;;;;6.47;2.20;;;;;;;;;;5263102;28;20155;-81
2022/07/31 14:03:35;;;;;;;3.08;1.65;;;;;;;;;;5265460;28;20481;-81
2022/07/31 14:06:06;;;;;;;2.88;1.65;;;;;;;;;;5281755;28;20517;-81
2022/07/31 14:08:37;;;;;;;3.90;1.67;;;;;;;;;;5281272;28;20029;-80
2022/07/31 14:11:09;;;;;;;5.10;1.98;;;;;;;;;;5283278;28;20032;-81
2022/07/31 14:13:40;;;;;;;3.10;1.53;;;;;;;;;;5282164;28;20509;-81
2022/07/31 14:16:11;;;;;;;3.90;1.63;;;;;;;;;;5282975;28;20111;-81
2022/07/31 14:18:42;;;;;;;3.40;1.73;;;;;;;;;;5283120;28;20064;-80
2022/07/31 14:21:13;;;;;;;3.57;1.40;;;;;;;;;;5284218;28;20017;-81
2022/07/31 14:23:45;;;;;;;4.90;2.20;;;;;;;;;;5266008;28;20029;-80
2022/07/31 14:26:16;;;;;;;6.60;1.80;;;;;;;;;;5283924;28;20079;-80
2022/07/31 14:28:48;;;;;;;5.90;1.70;;;;;;;;;;5285642;28;20036;-81
2022/07/31 14:31:19;;;;;;;3.90;1.70;;;;;;;;;;5286099;28;20076;-80
2022/07/31 14:33:50;;;;;;;4.00;2.07;;;;;;;;;;5282972;28;20025;-80
2022/07/31 14:36:22;;;;;;;7.13;2.10;;;;;;;;;;5281550;28;20323;-81
2022/07/31 14:38:53;;;;;;;3.97;1.43;;;;;;;;;;5282239;28;20661;-81
2022/07/31 14:41:24;;;;;;;4.20;1.33;;;;;;;;;;5280935;28;20021;-81
2022/07/31 14:43:55;;;;;;;4.70;1.43;;;;;;;;;;5282399;28;20067;-81
2022/07/31 14:46:26;;;;;;;5.23;1.47;;;;;;;;;;5286233;28;20279;-80
2022/07/31 14:49:00;;;;;;;3.67;1.60;;;;;;;;;;5273127;28;20132;-81
2022/07/31 14:51:31;;;;;;;5.38;1.60;;;;;;;;;;5284192;28;20099;-81
2022/07/31 14:54:02;;;;;;;5.17;1.53;;;;;;;;;;5285169;28;20112;-81
2022/07/31 14:56:34;;;;;;;2.78;1.50;;;;;;;;;;5267731;28;20033;-81
2022/07/31 14:59:05;;;;;;;3.77;2.20;;;;;;;;;;5278534;28;20104;-81
2022/07/31 15:01:36;;;;;;;4.87;2.27;;;;;;;;;;5273988;28;20032;-81
2022/07/31 15:04:07;;;;;;;4.63;2.30;;;;;;;;;;5286023;28;20028;-81
2022/07/31 15:06:38;;;;;;;6.60;3.00;;;;;;;;;;5281201;28;20390;-81
2022/07/31 15:09:10;;;;;;;3.60;2.13;;;;;;;;;;5278424;28;20254;-81
2022/07/31 15:11:41;;;;;;;4.22;2.10;;;;;;;;;;5281648;28;20112;-80